sensor_id;sensor_type;location;lat;lon;timestamp;pressure;altitude;pressure_sealevel;temperature;humidity
41254;BME280;26987;59.928;30.306;2022-11-20T00:01:18;101905.78;;;-5.91;88.08
41254;BME280;26987;59.928;30.306;2022-11-20T00:03:46;101903.97;;;-5.89;87.42
41254;BME280;26987;59.928;30.306;2022-11-20T00:06:16;101897.19;;;-5.93;88.21
41254;BME280;26987;59.928;30.306;2022-11-20T00:08:45;101891.25;;;-5.97;88.23
41254;BME280;26987;59.928;30.306;2022-11-20T00:11:15;101881.00;;;-6.02;88.76
41254;BME280;26987;59.928;30.306;2022-11-20T00:13:43;101897.72;;;-5.87;88.12
41254;BME280;26987;59.928;30.306;2022-11-20T00:16:14;101899.28;;;-5.83;88.21
41254;BME280;26987;59.928;30.306;2022-11-20T00:18:42;101894.25;;;-5.87;87.67
41254;BME280;26987;59.928;30.306;2022-11-20T00:21:11;101888.28;;;-5.89;87.93
41254;BME280;26987;59.928;30.306;2022-11-20T00:23:39;101889.03;;;-5.87;87.28
41254;BME280;26987;59.928;30.306;2022-11-20T00:26:09;101885.81;;;-5.92;87.83
41254;BME280;26987;59.928;30.306;2022-11-20T00:28:37;101882.34;;;-5.93;88.77
41254;BME280;26987;59.928;30.306;2022-11-20T00:31:06;101871.69;;;-5.88;87.96
41254;BME280;26987;59.928;30.306;2022-11-20T00:33:36;101869.47;;;-5.98;87.78
41254;BME280;26987;59.928;30.306;2022-11-20T00:36:06;101868.94;;;-5.85;87.97
41254;BME280;26987;59.928;30.306;2022-11-20T00:38:34;101842.00;;;-6.05;87.38
41254;BME280;26987;59.928;30.306;2022-11-20T00:41:04;101863.16;;;-5.92;87.42
41254;BME280;26987;59.928;30.306;2022-11-20T00:43:32;101860.47;;;-5.90;88.33
41254;BME280;26987;59.928;30.306;2022-11-20T00:46:01;101863.41;;;-5.79;88.31
41254;BME280;26987;59.928;30.306;2022-11-20T00:48:30;101870.75;;;-5.68;87.97
41254;BME280;26987;59.928;30.306;2022-11-20T00:50:59;101862.91;;;-5.68;87.31
41254;BME280;26987;59.928;30.306;2022-11-20T00:53:27;101857.75;;;-5.70;88.47
41254;BME280;26987;59.928;30.306;2022-11-20T00:55:55;101853.22;;;-5.66;88.12
41254;BME280;26987;59.928;30.306;2022-11-20T00:58:24;101859.03;;;-5.59;87.20
41254;BME280;26987;59.928;30.306;2022-11-20T01:00:52;101858.16;;;-5.60;87.38
41254;BME280;26987;59.928;30.306;2022-11-20T01:03:19;101856.34;;;-5.58;87.48
41254;BME280;26987;59.928;30.306;2022-11-20T01:05:47;101849.47;;;-5.60;87.46
41254;BME280;26987;59.928;30.306;2022-11-20T01:08:16;101851.38;;;-5.64;86.81
41254;BME280;26987;59.928;30.306;2022-11-20T01:10:44;101856.03;;;-5.71;87.70
41254;BME280;26987;59.928;30.306;2022-11-20T01:13:11;101836.13;;;-5.73;87.28
41254;BME280;26987;59.928;30.306;2022-11-20T01:16:02;101837.81;;;-5.72;87.20
41254;BME280;26987;59.928;30.306;2022-11-20T01:18:29;101840.81;;;-5.80;87.24
41254;BME280;26987;59.928;30.306;2022-11-20T01:21:00;101825.56;;;-5.89;88.20
41254;BME280;26987;59.928;30.306;2022-11-20T01:23:32;101847.03;;;-5.83;88.15
41254;BME280;26987;59.928;30.306;2022-11-20T01:26:01;101831.28;;;-5.81;88.52
41254;BME280;26987;59.928;30.306;2022-11-20T01:28:29;101831.34;;;-5.83;87.88
41254;BME280;26987;59.928;30.306;2022-11-20T01:30:58;101824.28;;;-5.80;88.36
41254;BME280;26987;59.928;30.306;2022-11-20T01:33:26;101819.13;;;-5.82;87.67
41254;BME280;26987;59.928;30.306;2022-11-20T01:36:03;101799.59;;;-5.92;88.23
41254;BME280;26987;59.928;30.306;2022-11-20T01:38:33;101820.75;;;-5.79;87.95
41254;BME280;26987;59.928;30.306;2022-11-20T01:41:01;101824.44;;;-5.84;88.47
41254;BME280;26987;59.928;30.306;2022-11-20T01:43:29;101823.44;;;-5.81;88.61
41254;BME280;26987;59.928;30.306;2022-11-20T01:46:12;101827.63;;;-5.77;88.19
41254;BME280;26987;59.928;30.306;2022-11-20T01:48:46;101811.09;;;-5.77;88.14
41254;BME280;26987;59.928;30.306;2022-11-20T01:51:21;101822.31;;;-5.75;88.17
41254;BME280;26987;59.928;30.306;2022-11-20T01:53:52;101816.38;;;-5.79;88.64
41254;BME280;26987;59.928;30.306;2022-11-20T01:56:21;101814.56;;;-5.77;88.04
41254;BME280;26987;59.928;30.306;2022-11-20T01:58:51;101829.16;;;-5.73;87.72
41254;BME280;26987;59.928;30.306;2022-11-20T02:01:21;101813.19;;;-5.86;87.52
41254;BME280;26987;59.928;30.306;2022-11-20T02:03:49;101782.84;;;-6.06;87.20
41254;BME280;26987;59.928;30.306;2022-11-20T02:06:23;101762.50;;;-6.18;88.04
41254;BME280;26987;59.928;30.306;2022-11-20T02:08:53;101811.16;;;-5.79;87.47
41254;BME280;26987;59.928;30.306;2022-11-20T02:11:21;101817.00;;;-5.74;87.81
41254;BME280;26987;59.928;30.306;2022-11-20T02:13:49;101807.06;;;-5.85;87.70
41254;BME280;26987;59.928;30.306;2022-11-20T02:16:21;101787.47;;;-5.93;87.23
41254;BME280;26987;59.928;30.306;2022-11-20T02:18:50;101811.44;;;-5.85;87.55
41254;BME280;26987;59.928;30.306;2022-11-20T02:21:37;101806.06;;;-5.82;87.57
41254;BME280;26987;59.928;30.306;2022-11-20T02:24:11;101769.59;;;-6.03;87.78
41254;BME280;26987;59.928;30.306;2022-11-20T02:26:44;101813.75;;;-5.79;87.35
41254;BME280;26987;59.928;30.306;2022-11-20T02:29:16;101801.56;;;-5.78;88.11
41254;BME280;26987;59.928;30.306;2022-11-20T02:31:44;101808.53;;;-5.79;88.11
41254;BME280;26987;59.928;30.306;2022-11-20T02:34:12;101815.00;;;-5.68;86.92
41254;BME280;26987;59.928;30.306;2022-11-20T02:36:41;101797.72;;;-5.71;86.45
41254;BME280;26987;59.928;30.306;2022-11-20T02:39:11;101816.38;;;-5.79;87.07
41254;BME280;26987;59.928;30.306;2022-11-20T02:41:42;101800.91;;;-5.84;86.97
41254;BME280;26987;59.928;30.306;2022-11-20T02:44:10;101786.09;;;-5.83;87.44
41254;BME280;26987;59.928;30.306;2022-11-20T02:46:38;101804.16;;;-5.78;87.63
41254;BME280;26987;59.928;30.306;2022-11-20T02:49:06;101784.16;;;-5.79;87.21
41254;BME280;26987;59.928;30.306;2022-11-20T02:51:33;101796.34;;;-5.78;86.79
41254;BME280;26987;59.928;30.306;2022-11-20T02:54:01;101789.38;;;-5.79;86.98
41254;BME280;26987;59.928;30.306;2022-11-20T02:56:30;101787.84;;;-5.84;87.63
41254;BME280;26987;59.928;30.306;2022-11-20T02:58:58;101786.56;;;-5.75;87.33
41254;BME280;26987;59.928;30.306;2022-11-20T03:01:26;101789.25;;;-5.76;87.32
41254;BME280;26987;59.928;30.306;2022-11-20T03:03:53;101796.72;;;-5.68;86.83
41254;BME280;26987;59.928;30.306;2022-11-20T03:06:22;101786.25;;;-5.68;87.82
41254;BME280;26987;59.928;30.306;2022-11-20T03:08:49;101780.81;;;-5.64;86.55
41254;BME280;26987;59.928;30.306;2022-11-20T03:11:17;101778.72;;;-5.75;87.03
41254;BME280;26987;59.928;30.306;2022-11-20T03:13:46;101774.28;;;-5.73;87.09
41254;BME280;26987;59.928;30.306;2022-11-20T03:16:15;101788.56;;;-5.80;87.70
41254;BME280;26987;59.928;30.306;2022-11-20T03:18:44;101783.47;;;-5.83;88.07
41254;BME280;26987;59.928;30.306;2022-11-20T03:21:12;101759.47;;;-5.91;87.70
41254;BME280;26987;59.928;30.306;2022-11-20T03:23:40;101789.38;;;-5.79;87.42
41254;BME280;26987;59.928;30.306;2022-11-20T03:26:13;101774.53;;;-5.97;87.23
41254;BME280;26987;59.928;30.306;2022-11-20T03:28:42;101769.78;;;-6.06;87.41
41254;BME280;26987;59.928;30.306;2022-11-20T03:31:13;101793.09;;;-5.84;87.56
41254;BME280;26987;59.928;30.306;2022-11-20T03:33:41;101778.69;;;-5.92;87.46
41254;BME280;26987;59.928;30.306;2022-11-20T03:36:11;101786.53;;;-5.92;87.79
41254;BME280;26987;59.928;30.306;2022-11-20T03:38:40;101775.59;;;-6.01;88.38
41254;BME280;26987;59.928;30.306;2022-11-20T03:41:10;101790.81;;;-5.91;88.79
41254;BME280;26987;59.928;30.306;2022-11-20T03:43:38;101798.09;;;-5.79;88.03
41254;BME280;26987;59.928;30.306;2022-11-20T03:46:07;101791.19;;;-5.80;87.01
41254;BME280;26987;59.928;30.306;2022-11-20T03:48:36;101785.47;;;-5.88;87.66
41254;BME280;26987;59.928;30.306;2022-11-20T03:51:08;101778.69;;;-5.92;88.05
41254;BME280;26987;59.928;30.306;2022-11-20T03:53:36;101776.53;;;-5.84;87.32
41254;BME280;26987;59.928;30.306;2022-11-20T03:56:05;101783.78;;;-5.89;87.47
41254;BME280;26987;59.928;30.306;2022-11-20T03:58:33;101781.78;;;-5.84;88.19
41254;BME280;26987;59.928;30.306;2022-11-20T04:01:05;101780.88;;;-5.83;88.03
41254;BME280;26987;59.928;30.306;2022-11-20T04:03:34;101778.34;;;-5.85;88.15
41254;BME280;26987;59.928;30.306;2022-11-20T04:06:05;101757.16;;;-5.98;87.95
41254;BME280;26987;59.928;30.306;2022-11-20T04:08:33;101772.47;;;-5.90;88.24
41254;BME280;26987;59.928;30.306;2022-11-20T04:11:11;101766.09;;;-5.84;88.30
41254;BME280;26987;59.928;30.306;2022-11-20T04:13:40;101768.25;;;-5.92;88.61
41254;BME280;26987;59.928;30.306;2022-11-20T04:16:08;101772.25;;;-5.85;87.10
41254;BME280;26987;59.928;30.306;2022-11-20T04:18:36;101767.38;;;-5.93;88.02
41254;BME280;26987;59.928;30.306;2022-11-20T04:21:06;101768.84;;;-5.87;87.52
41254;BME280;26987;59.928;30.306;2022-11-20T04:23:34;101770.06;;;-5.95;87.61
41254;BME280;26987;59.928;30.306;2022-11-20T04:26:03;101737.19;;;-6.16;87.07
41254;BME280;26987;59.928;30.306;2022-11-20T04:28:31;101768.09;;;-6.07;88.11
41254;BME280;26987;59.928;30.306;2022-11-20T04:31:03;101759.25;;;-6.04;87.81
41254;BME280;26987;59.928;30.306;2022-11-20T04:33:31;101764.63;;;-6.08;88.06
41254;BME280;26987;59.928;30.306;2022-11-20T04:36:03;101724.41;;;-6.23;88.22
41254;BME280;26987;59.928;30.306;2022-11-20T04:38:33;101765.34;;;-6.04;87.49
41254;BME280;26987;59.928;30.306;2022-11-20T04:41:02;101754.47;;;-6.14;87.79
41254;BME280;26987;59.928;30.306;2022-11-20T04:43:30;101768.03;;;-6.05;87.94
41254;BME280;26987;59.928;30.306;2022-11-20T04:45:59;101756.88;;;-6.09;88.43
41254;BME280;26987;59.928;30.306;2022-11-20T04:48:28;101736.41;;;-6.18;88.62
41254;BME280;26987;59.928;30.306;2022-11-20T04:50:57;101743.22;;;-6.16;88.96
41254;BME280;26987;59.928;30.306;2022-11-20T04:53:24;101752.13;;;-6.20;90.17
41254;BME280;26987;59.928;30.306;2022-11-20T04:55:59;101750.44;;;-6.21;89.93
41254;BME280;26987;59.928;30.306;2022-11-20T04:58:27;101738.81;;;-6.33;90.26
41254;BME280;26987;59.928;30.306;2022-11-20T05:01:01;101765.34;;;-6.23;91.04
41254;BME280;26987;59.928;30.306;2022-11-20T05:03:29;101761.09;;;-6.26;91.57
41254;BME280;26987;59.928;30.306;2022-11-20T05:06:00;101760.09;;;-6.23;91.53
41254;BME280;26987;59.928;30.306;2022-11-20T05:08:28;101762.66;;;-6.22;92.24
41254;BME280;26987;59.928;30.306;2022-11-20T05:11:04;101762.38;;;-6.15;91.67
41254;BME280;26987;59.928;30.306;2022-11-20T05:13:32;101764.38;;;-6.21;91.78
41254;BME280;26987;59.928;30.306;2022-11-20T05:16:03;101764.66;;;-6.27;92.26
41254;BME280;26987;59.928;30.306;2022-11-20T05:18:31;101762.94;;;-6.28;92.76
41254;BME280;26987;59.928;30.306;2022-11-20T05:20:59;101757.22;;;-6.36;91.94
41254;BME280;26987;59.928;30.306;2022-11-20T05:23:27;101762.31;;;-6.33;92.10
41254;BME280;26987;59.928;30.306;2022-11-20T05:25:56;101764.94;;;-6.33;92.61
41254;BME280;26987;59.928;30.306;2022-11-20T05:28:26;101766.47;;;-6.29;92.86
41254;BME280;26987;59.928;30.306;2022-11-20T05:30:54;101769.28;;;-6.14;92.62
41254;BME280;26987;59.928;30.306;2022-11-20T05:33:22;101778.31;;;-6.22;92.37
41254;BME280;26987;59.928;30.306;2022-11-20T05:35:50;101771.56;;;-6.26;92.39
41254;BME280;26987;59.928;30.306;2022-11-20T05:38:17;101768.88;;;-6.24;92.04
41254;BME280;26987;59.928;30.306;2022-11-20T05:40:45;101770.75;;;-6.28;91.89
41254;BME280;26987;59.928;30.306;2022-11-20T05:43:13;101771.97;;;-6.35;92.08
41254;BME280;26987;59.928;30.306;2022-11-20T05:45:42;101776.13;;;-6.31;92.22
41254;BME280;26987;59.928;30.306;2022-11-20T05:48:09;101776.06;;;-6.29;92.10
41254;BME280;26987;59.928;30.306;2022-11-20T05:50:37;101782.00;;;-6.26;92.22
41254;BME280;26987;59.928;30.306;2022-11-20T05:53:05;101786.66;;;-6.13;91.65
41254;BME280;26987;59.928;30.306;2022-11-20T05:55:32;101771.69;;;-6.29;91.15
41254;BME280;26987;59.928;30.306;2022-11-20T05:58:00;101770.28;;;-6.36;91.58
41254;BME280;26987;59.928;30.306;2022-11-20T06:00:28;101782.00;;;-6.26;90.88
41254;BME280;26987;59.928;30.306;2022-11-20T06:02:57;101769.34;;;-6.35;90.58
41254;BME280;26987;59.928;30.306;2022-11-20T06:05:24;101774.16;;;-6.26;90.58
41254;BME280;26987;59.928;30.306;2022-11-20T06:07:53;101777.63;;;-6.25;90.55
41254;BME280;26987;59.928;30.306;2022-11-20T06:10:20;101775.09;;;-6.27;91.15
41254;BME280;26987;59.928;30.306;2022-11-20T06:12:48;101783.59;;;-6.23;91.01
41254;BME280;26987;59.928;30.306;2022-11-20T06:15:16;101758.72;;;-6.30;90.37
41254;BME280;26987;59.928;30.306;2022-11-20T06:17:44;101775.50;;;-6.17;90.15
41254;BME280;26987;59.928;30.306;2022-11-20T06:20:13;101781.28;;;-6.10;89.85
41254;BME280;26987;59.928;30.306;2022-11-20T06:22:41;101779.91;;;-6.17;90.39
41254;BME280;26987;59.928;30.306;2022-11-20T06:25:09;101783.13;;;-6.12;89.19
41254;BME280;26987;59.928;30.306;2022-11-20T06:27:36;101789.06;;;-6.09;89.46
41254;BME280;26987;59.928;30.306;2022-11-20T06:30:05;101769.19;;;-6.13;88.93
41254;BME280;26987;59.928;30.306;2022-11-20T06:32:33;101785.13;;;-6.17;89.01
41254;BME280;26987;59.928;30.306;2022-11-20T06:35:01;101787.63;;;-6.16;89.79
41254;BME280;26987;59.928;30.306;2022-11-20T06:37:30;101781.44;;;-6.13;89.01
41254;BME280;26987;59.928;30.306;2022-11-20T06:39:58;101778.91;;;-6.15;88.76
41254;BME280;26987;59.928;30.306;2022-11-20T06:42:26;101782.00;;;-6.26;88.37
41254;BME280;26987;59.928;30.306;2022-11-20T06:44:54;101769.72;;;-6.24;89.40
41254;BME280;26987;59.928;30.306;2022-11-20T06:47:22;101772.19;;;-6.21;88.86
41254;BME280;26987;59.928;30.306;2022-11-20T06:49:50;101779.78;;;-6.16;89.16
41254;BME280;26987;59.928;30.306;2022-11-20T06:52:18;101783.84;;;-6.09;88.91
41254;BME280;26987;59.928;30.306;2022-11-20T06:54:47;101788.06;;;-6.06;87.82
41254;BME280;26987;59.928;30.306;2022-11-20T06:57:14;101781.16;;;-6.07;87.81
41254;BME280;26987;59.928;30.306;2022-11-20T06:59:42;101783.84;;;-6.09;88.35
41254;BME280;26987;59.928;30.306;2022-11-20T07:02:10;101784.34;;;-6.02;87.94
41254;BME280;26987;59.928;30.306;2022-11-20T07:04:38;101790.75;;;-6.08;87.59
41254;BME280;26987;59.928;30.306;2022-11-20T07:07:06;101773.66;;;-6.15;87.96
41254;BME280;26987;59.928;30.306;2022-11-20T07:09:34;101779.44;;;-6.08;88.25
41254;BME280;26987;59.928;30.306;2022-11-20T07:12:04;101786.03;;;-6.01;88.21
41254;BME280;26987;59.928;30.306;2022-11-20T07:14:31;101791.13;;;-5.98;87.91
41254;BME280;26987;59.928;30.306;2022-11-20T07:16:59;101791.25;;;-6.01;88.06
41254;BME280;26987;59.928;30.306;2022-11-20T07:19:28;101785.28;;;-6.03;87.81
41254;BME280;26987;59.928;30.306;2022-11-20T07:22:02;101792.13;;;-6.00;88.00
41254;BME280;26987;59.928;30.306;2022-11-20T07:24:30;101785.13;;;-6.00;87.60
41254;BME280;26987;59.928;30.306;2022-11-20T07:27:00;101791.81;;;-5.94;87.92
41254;BME280;26987;59.928;30.306;2022-11-20T07:29:29;101792.53;;;-5.90;87.97
41254;BME280;26987;59.928;30.306;2022-11-20T07:31:57;101796.75;;;-5.88;87.63
41254;BME280;26987;59.928;30.306;2022-11-20T07:34:25;101795.63;;;-5.82;87.48
41254;BME280;26987;59.928;30.306;2022-11-20T07:36:53;101799.16;;;-5.83;87.24
41254;BME280;26987;59.928;30.306;2022-11-20T07:39:20;101803.25;;;-5.77;88.09
41254;BME280;26987;59.928;30.306;2022-11-20T07:41:48;101808.25;;;-5.73;87.00
41254;BME280;26987;59.928;30.306;2022-11-20T07:44:16;101810.88;;;-5.73;86.52
41254;BME280;26987;59.928;30.306;2022-11-20T07:46:45;101815.94;;;-5.70;86.69
41254;BME280;26987;59.928;30.306;2022-11-20T07:49:12;101800.28;;;-5.70;86.74
41254;BME280;26987;59.928;30.306;2022-11-20T07:51:40;101803.78;;;-5.71;87.03
41254;BME280;26987;59.928;30.306;2022-11-20T07:54:08;101808.84;;;-5.67;87.36
41254;BME280;26987;59.928;30.306;2022-11-20T07:56:35;101820.56;;;-5.57;86.80
41254;BME280;26987;59.928;30.306;2022-11-20T07:59:03;101814.50;;;-5.58;86.68
41254;BME280;26987;59.928;30.306;2022-11-20T08:01:31;101810.44;;;-5.63;86.79
41254;BME280;26987;59.928;30.306;2022-11-20T08:04:00;101802.41;;;-5.60;87.34
41254;BME280;26987;59.928;30.306;2022-11-20T08:06:28;101799.78;;;-5.60;86.97
41254;BME280;26987;59.928;30.306;2022-11-20T08:08:56;101802.25;;;-5.57;87.08
41254;BME280;26987;59.928;30.306;2022-11-20T08:11:23;101805.72;;;-5.57;86.06
41254;BME280;26987;59.928;30.306;2022-11-20T08:14:08;101801.88;;;-5.67;86.09
41254;BME280;26987;59.928;30.306;2022-11-20T08:16:39;101806.09;;;-5.64;86.64
41254;BME280;26987;59.928;30.306;2022-11-20T08:19:08;101800.66;;;-5.60;86.40
41254;BME280;26987;59.928;30.306;2022-11-20T08:21:36;101747.19;;;-6.07;86.44
41254;BME280;26987;59.928;30.306;2022-11-20T08:24:05;101814.38;;;-5.74;86.39
41254;BME280;26987;59.928;30.306;2022-11-20T08:26:33;101812.91;;;-5.79;87.32
41254;BME280;26987;59.928;30.306;2022-11-20T08:29:01;101801.84;;;-5.85;87.88
41254;BME280;26987;59.928;30.306;2022-11-20T08:31:29;101805.63;;;-5.73;88.25
41254;BME280;26987;59.928;30.306;2022-11-20T08:33:57;101799.97;;;-5.63;88.28
41254;BME280;26987;59.928;30.306;2022-11-20T08:36:26;101803.78;;;-5.71;88.34
41254;BME280;26987;59.928;30.306;2022-11-20T08:38:55;101815.59;;;-5.81;89.32
41254;BME280;26987;59.928;30.306;2022-11-20T08:41:23;101803.00;;;-5.90;89.66
41254;BME280;26987;59.928;30.306;2022-11-20T08:43:55;101798.66;;;-5.91;89.92
41254;BME280;26987;59.928;30.306;2022-11-20T08:46:24;101812.97;;;-5.81;91.46
41254;BME280;26987;59.928;30.306;2022-11-20T08:48:53;101791.91;;;-5.96;91.15
41254;BME280;26987;59.928;30.306;2022-11-20T08:51:20;101816.84;;;-5.71;91.23
41254;BME280;26987;59.928;30.306;2022-11-20T08:53:49;101826.13;;;-5.63;92.17
41254;BME280;26987;59.928;30.306;2022-11-20T08:56:17;101823.25;;;-5.59;91.87
41254;BME280;26987;59.928;30.306;2022-11-20T08:58:45;101824.03;;;-5.57;91.33
41254;BME280;26987;59.928;30.306;2022-11-20T09:01:13;101829.19;;;-5.55;91.23
41254;BME280;26987;59.928;30.306;2022-11-20T09:03:40;101806.03;;;-5.63;90.48
41254;BME280;26987;59.928;30.306;2022-11-20T09:06:08;101815.19;;;-5.54;90.02
41254;BME280;26987;59.928;30.306;2022-11-20T09:08:36;101819.19;;;-5.47;90.00
41254;BME280;26987;59.928;30.306;2022-11-20T09:11:05;101811.53;;;-5.50;88.76
41254;BME280;26987;59.928;30.306;2022-11-20T09:13:34;101817.88;;;-5.55;88.85
41254;BME280;26987;59.928;30.306;2022-11-20T09:16:05;101818.81;;;-5.57;89.38
41254;BME280;26987;59.928;30.306;2022-11-20T09:18:34;101804.81;;;-5.55;88.52
41254;BME280;26987;59.928;30.306;2022-11-20T09:21:05;101818.03;;;-5.59;89.42
41254;BME280;26987;59.928;30.306;2022-11-20T09:23:34;101801.50;;;-5.59;89.34
41254;BME280;26987;59.928;30.306;2022-11-20T09:26:05;101802.91;;;-5.52;88.11
41254;BME280;26987;59.928;30.306;2022-11-20T09:28:33;101799.19;;;-5.48;88.54
41254;BME280;26987;59.928;30.306;2022-11-20T09:31:05;101802.22;;;-5.38;87.86
41254;BME280;26987;59.928;30.306;2022-11-20T09:33:33;101804.91;;;-5.39;87.71
41254;BME280;26987;59.928;30.306;2022-11-20T09:36:01;101807.84;;;-5.46;87.84
41254;BME280;26987;59.928;30.306;2022-11-20T09:38:28;101803.03;;;-5.55;87.78
41254;BME280;26987;59.928;30.306;2022-11-20T09:40:58;101796.44;;;-5.62;87.75
41254;BME280;26987;59.928;30.306;2022-11-20T09:43:43;101794.28;;;-5.54;88.74
41254;BME280;26987;59.928;30.306;2022-11-20T09:46:18;101807.22;;;-5.33;88.33
41254;BME280;26987;59.928;30.306;2022-11-20T09:48:57;101801.91;;;-5.32;86.87
41254;BME280;26987;59.928;30.306;2022-11-20T09:51:38;101802.16;;;-5.36;87.45
41254;BME280;26987;59.928;30.306;2022-11-20T09:54:15;101805.97;;;-5.44;87.26
41254;BME280;26987;59.928;30.306;2022-11-20T09:56:46;101787.38;;;-5.55;87.52
41254;BME280;26987;59.928;30.306;2022-11-20T09:59:28;101804.22;;;-5.43;87.47
41254;BME280;26987;59.928;30.306;2022-11-20T10:01:58;101794.34;;;-5.55;87.35
41254;BME280;26987;59.928;30.306;2022-11-20T10:04:30;101797.38;;;-5.46;87.52
41254;BME280;26987;59.928;30.306;2022-11-20T10:07:04;101797.97;;;-5.40;87.20
41254;BME280;26987;59.928;30.306;2022-11-20T10:09:35;101765.84;;;-5.42;86.64
41254;BME280;26987;59.928;30.306;2022-11-20T10:12:12;101796.69;;;-5.14;86.50
41254;BME280;26987;59.928;30.306;2022-11-20T10:14:52;101796.13;;;-5.03;86.55
41254;BME280;26987;59.928;30.306;2022-11-20T10:17:34;101799.66;;;-5.04;86.17
41254;BME280;26987;59.928;30.306;2022-11-20T10:20:16;101798.75;;;-5.03;85.41
41254;BME280;26987;59.928;30.306;2022-11-20T10:22:58;101799.66;;;-5.04;85.08
41254;BME280;26987;59.928;30.306;2022-11-20T10:25:36;101801.91;;;-5.14;85.33
41254;BME280;26987;59.928;30.306;2022-11-20T10:28:14;101805.38;;;-5.13;86.09
41254;BME280;26987;59.928;30.306;2022-11-20T10:30:46;101793.75;;;-5.25;85.98
41254;BME280;26987;59.928;30.306;2022-11-20T10:33:19;101805.69;;;-5.20;85.63
41254;BME280;26987;59.928;30.306;2022-11-20T10:35:52;101793.22;;;-5.14;85.87
41254;BME280;26987;59.928;30.306;2022-11-20T10:38:26;101778.63;;;-5.36;86.00
41254;BME280;26987;59.928;30.306;2022-11-20T10:40:57;101800.59;;;-5.05;86.21
41254;BME280;26987;59.928;30.306;2022-11-20T10:43:48;101796.84;;;-5.17;85.87
41254;BME280;26987;59.928;30.306;2022-11-20T10:46:20;101805.38;;;-5.13;85.22
41254;BME280;26987;59.928;30.306;2022-11-20T10:48:49;101810.75;;;-5.16;85.59
41254;BME280;26987;59.928;30.306;2022-11-20T10:51:33;101802.91;;;-5.16;85.85
41254;BME280;26987;59.928;30.306;2022-11-20T10:54:12;101806.66;;;-5.04;85.96
41254;BME280;26987;59.928;30.306;2022-11-20T10:56:46;101792.75;;;-5.05;85.26
41254;BME280;26987;59.928;30.306;2022-11-20T10:59:31;101790.97;;;-5.04;85.56
41254;BME280;26987;59.928;30.306;2022-11-20T11:02:01;101791.34;;;-4.95;86.30
41254;BME280;26987;59.928;30.306;2022-11-20T11:04:36;101797.19;;;-4.89;84.95
41254;BME280;26987;59.928;30.306;2022-11-20T11:07:10;101800.50;;;-4.86;85.43
41254;BME280;26987;59.928;30.306;2022-11-20T11:09:43;101795.34;;;-4.87;85.44
41254;BME280;26987;59.928;30.306;2022-11-20T11:12:11;101777.81;;;-5.03;85.50
41254;BME280;26987;59.928;30.306;2022-11-20T11:14:43;101791.19;;;-4.91;86.08
41254;BME280;26987;59.928;30.306;2022-11-20T11:17:24;101796.78;;;-4.82;85.80
41254;BME280;26987;59.928;30.306;2022-11-20T11:20:06;101803.31;;;-4.73;85.50
41254;BME280;26987;59.928;30.306;2022-11-20T11:22:44;101795.72;;;-4.95;85.13
41254;BME280;26987;59.928;30.306;2022-11-20T11:25:25;101801.53;;;-5.06;85.51
41254;BME280;26987;59.928;30.306;2022-11-20T11:27:55;101801.63;;;-5.08;86.26
41254;BME280;26987;59.928;30.306;2022-11-20T11:30:24;101790.91;;;-5.21;86.11
41254;BME280;26987;59.928;30.306;2022-11-20T11:33:04;101811.75;;;-5.01;85.96
41254;BME280;26987;59.928;30.306;2022-11-20T11:35:33;101797.38;;;-5.10;86.64
41254;BME280;26987;59.928;30.306;2022-11-20T11:38:04;101805.75;;;-5.03;85.98
41254;BME280;26987;59.928;30.306;2022-11-20T11:40:34;101762.84;;;-5.17;86.12
41254;BME280;26987;59.928;30.306;2022-11-20T11:43:05;101760.81;;;-5.12;85.55
41254;BME280;26987;59.928;30.306;2022-11-20T11:45:54;101798.81;;;-4.87;85.70
41254;BME280;26987;59.928;30.306;2022-11-20T11:48:25;101783.59;;;-4.96;85.38
41254;BME280;26987;59.928;30.306;2022-11-20T11:50:53;101793.03;;;-4.94;86.07
41254;BME280;26987;59.928;30.306;2022-11-20T11:53:21;101779.69;;;-5.05;86.76
41254;BME280;26987;59.928;30.306;2022-11-20T11:55:55;101792.88;;;-4.90;86.69
41254;BME280;26987;59.928;30.306;2022-11-20T11:58:41;101792.38;;;-4.97;85.47
41254;BME280;26987;59.928;30.306;2022-11-20T12:01:21;101794.81;;;-5.12;86.30
41254;BME280;26987;59.928;30.306;2022-11-20T12:04:00;101791.53;;;-5.15;86.80
41254;BME280;26987;59.928;30.306;2022-11-20T12:06:32;101805.13;;;-5.09;87.58
41254;BME280;26987;59.928;30.306;2022-11-20T12:09:04;101801.84;;;-5.12;88.09
41254;BME280;26987;59.928;30.306;2022-11-20T12:11:37;101806.66;;;-5.04;88.55
41254;BME280;26987;59.928;30.306;2022-11-20T12:14:13;101804.38;;;-4.93;88.10
41254;BME280;26987;59.928;30.306;2022-11-20T12:16:43;101806.50;;;-5.01;86.98
41254;BME280;26987;59.928;30.306;2022-11-20T12:19:13;101802.84;;;-4.97;87.33
41254;BME280;26987;59.928;30.306;2022-11-20T12:21:52;101803.59;;;-4.95;86.59
41254;BME280;26987;59.928;30.306;2022-11-20T12:24:36;101807.22;;;-4.98;87.17
41254;BME280;26987;59.928;30.306;2022-11-20T12:27:27;101798.44;;;-5.14;87.12
41254;BME280;26987;59.928;30.306;2022-11-20T12:30:08;101803.44;;;-5.10;87.72
41254;BME280;26987;59.928;30.306;2022-11-20T12:32:54;101812.22;;;-5.11;87.82
41254;BME280;26987;59.928;30.306;2022-11-20T12:38:51;101801.91;;;-5.14;88.01
41254;BME280;26987;59.928;30.306;2022-11-20T12:41:40;101810.75;;;-5.16;88.70
41254;BME280;26987;59.928;30.306;2022-11-20T12:44:41;101815.06;;;-5.15;88.84
41254;BME280;26987;59.928;30.306;2022-11-20T12:47:39;101790.75;;;-5.35;89.15
41254;BME280;26987;59.928;30.306;2022-11-20T12:50:19;101808.47;;;-5.23;89.68
41254;BME280;26987;59.928;30.306;2022-11-20T12:52:55;101804.75;;;-5.19;89.40
41254;BME280;26987;59.928;30.306;2022-11-20T12:55:38;101817.69;;;-4.98;89.20
41254;BME280;26987;59.928;30.306;2022-11-20T12:58:13;101780.91;;;-5.12;88.86
41254;BME280;26987;59.928;30.306;2022-11-20T13:00:56;101806.81;;;-4.90;88.80
41254;BME280;26987;59.928;30.306;2022-11-20T13:03:34;101775.59;;;-5.11;88.94